Concordia, KS

11:28 AM CDT on October 01, 2014 (GMT -0500)
Joe's Place | Change Station
CLOSE
Current Station
Personal Weather Station
Location: Concordia, KS
Elevation: 1440 ft
Nearby Weather Stations

Elev 1440 ft 39.57 °N, 97.65 °W | Updated 7 seconds ago

Overcast
Overcast
66.7 °F
Feels Like 66.7 °F
N
0.0
Wind Variable Wind from NE
Gusts 0.0 mph

Today
High -- | Low -- °F
--% Chance of Precip.
Yesterday
High -- | Low -- °F
Precip. -- in
7:26 AM 7:13 PM
Waxing Crescent, 49% visible
Pressure 29.75 in
Visibility 9.0 miles
Clouds Overcast 1000 ft
Dew Point 65 °F
Humidity 95%
Rainfall 0.01 in
Snow Depth Not available.
UV 1 out of 12
Pollen .50 out of 12
Air Quality Not available.
Flu Activity Not available.
METAR KCNK 011555Z AUTO 00000KT 9SM OVC010 20/18 A2977 RMK AO2 CIG 006V012 SLP072 T02000178

More Conditions Fewer Conditions

Pressure 29.75 in
Visibility 9.0 miles
Clouds Overcast 1000 ft
Dew Point 65 °F
Humidity 95%
Rainfall 0.01 in
Snow Depth Not available.
UV 1 out of 12
Pollen .50 out of 12
Air Quality Not available.
Flu Activity Not available.
METAR KCNK 011555Z AUTO 00000KT 9SM OVC010 20/18 A2977 RMK AO2 CIG 006V012 SLP072 T02000178

More Conditions Fewer Conditions

10-Day Weather Forecast

Almanac

Astronomy

Oct. 01, 2014 Rise Set
Actual Time 7:26 AM CDT 7:13 PM CDT
Civil Twilight 7:00 AM CDT 7:39 PM CDT
Nautical Twilight 6:28 AM CDT 8:10 PM CDT
Astronomical Twilight 5:57 AM CDT 8:42 PM CDT
Moon 2:27 PM CDT No Moon Set
Length of Visible Light 12h 39m
Length of Day
11h 46m
Tomorrow will be 2m 34s shorter.
Waxing Crescent, 49% of the Moon is Illuminated
Today
Waxing Crescent
Oct 1
First Quarter
Oct 8
Full
Oct 15
Last Quarter
Oct 23
New

Today's Extremes

State Highs State Lows

Community

WunderPhotos

Upload Photos

1,757,980 photos uploaded!

WunderBlogs® & News

Nearby

Snow Depth

Station Depth Elevation
No new snow has been reported.

Earthquake Activity

City Distance Mag. Time & Date
No recent earthquake activity has been reported nearby.
Minimum magnitude displayed is 2.5.

Coastal Water Temperatures

Place Temperature
No Stations Reporting

Nearby Weather Stations